sensor_id;sensor_type;location;lat;lon;timestamp;pressure;altitude;pressure_sealevel;temperature;humidity
55187;BME280;55457;52.002;5.464;2023-03-18T00:01:45;100547.00;;;21.60;40.22
55187;BME280;55457;52.002;5.464;2023-03-18T00:04:11;100541.03;;;21.58;39.88
55187;BME280;55457;52.002;5.464;2023-03-18T00:06:36;100550.81;;;21.59;40.09
55187;BME280;55457;52.002;5.464;2023-03-18T00:09:04;100550.00;;;21.59;40.05
55187;BME280;55457;52.002;5.464;2023-03-18T00:11:30;100545.66;;;21.58;40.16
55187;BME280;55457;52.002;5.464;2023-03-18T00:13:55;100555.69;;;21.57;40.18
55187;BME280;55457;52.002;5.464;2023-03-18T00:16:21;100554.59;;;21.58;40.14
55187;BME280;55457;52.002;5.464;2023-03-18T00:18:46;100554.06;;;21.56;40.15
55187;BME280;55457;52.002;5.464;2023-03-18T00:21:11;100555.91;;;21.56;40.20
55187;BME280;55457;52.002;5.464;2023-03-18T00:23:37;100558.63;;;21.56;40.02
55187;BME280;55457;52.002;5.464;2023-03-18T00:26:02;100564.91;;;21.56;39.99
55187;BME280;55457;52.002;5.464;2023-03-18T00:28:29;100562.19;;;21.56;40.13
55187;BME280;55457;52.002;5.464;2023-03-18T00:31:00;100562.41;;;21.55;40.24
55187;BME280;55457;52.002;5.464;2023-03-18T00:33:25;100565.13;;;21.55;40.00
55187;BME280;55457;52.002;5.464;2023-03-18T00:35:51;100562.69;;;21.53;40.07
55187;BME280;55457;52.002;5.464;2023-03-18T00:38:17;100569.75;;;21.54;39.94
55187;BME280;55457;52.002;5.464;2023-03-18T00:40:48;100565.13;;;21.55;40.07
55187;BME280;55457;52.002;5.464;2023-03-18T00:43:28;100563.50;;;21.54;40.14
55187;BME280;55457;52.002;5.464;2023-03-18T00:45:57;100557.25;;;21.53;40.05
55187;BME280;55457;52.002;5.464;2023-03-18T00:48:23;100553.75;;;21.53;40.11
55187;BME280;55457;52.002;5.464;2023-03-18T00:50:48;100566.47;;;21.52;40.10
55187;BME280;55457;52.002;5.464;2023-03-18T00:53:14;100557.25;;;21.53;39.95
55187;BME280;55457;52.002;5.464;2023-03-18T00:55:40;100564.59;;;21.53;40.07
55187;BME280;55457;52.002;5.464;2023-03-18T00:58:06;100557.53;;;21.52;40.02
55187;BME280;55457;52.002;5.464;2023-03-18T01:00:31;100561.06;;;21.52;40.01
55187;BME280;55457;52.002;5.464;2023-03-18T01:02:57;100561.06;;;21.52;40.14
55187;BME280;55457;52.002;5.464;2023-03-18T01:05:22;100559.44;;;21.51;40.06
55187;BME280;55457;52.002;5.464;2023-03-18T01:07:48;100554.81;;;21.52;40.13
55187;BME280;55457;52.002;5.464;2023-03-18T02:27:00;100565.84;;;21.45;40.06
55187;BME280;55457;52.002;5.464;2023-03-18T02:29:28;100568.56;;;21.45;40.06
55187;BME280;55457;52.002;5.464;2023-03-18T02:31:55;100566.94;;;21.44;40.09
55187;BME280;55457;52.002;5.464;2023-03-18T02:34:22;100566.94;;;21.44;39.89
55187;BME280;55457;52.002;5.464;2023-03-18T02:36:48;100574.00;;;21.45;39.87
55187;BME280;55457;52.002;5.464;2023-03-18T02:39:15;100579.69;;;21.44;39.89
55187;BME280;55457;52.002;5.464;2023-03-18T02:41:41;100579.69;;;21.44;39.89
55187;BME280;55457;52.002;5.464;2023-03-18T02:44:07;100568.84;;;21.44;40.06
55187;BME280;55457;52.002;5.464;2023-03-18T02:48:58;100576.97;;;21.44;39.86
55187;BME280;55457;52.002;5.464;2023-03-18T02:51:24;100575.06;;;21.44;39.89
55187;BME280;55457;52.002;5.464;2023-03-18T02:53:50;100575.34;;;21.43;40.04
55187;BME280;55457;52.002;5.464;2023-03-18T02:56:16;100576.16;;;21.43;40.01
55187;BME280;55457;52.002;5.464;2023-03-18T02:58:41;100582.38;;;21.44;39.93
55187;BME280;55457;52.002;5.464;2023-03-18T03:01:07;100578.84;;;21.43;39.89
55187;BME280;55457;52.002;5.464;2023-03-18T03:03:34;100585.09;;;21.44;39.99
55187;BME280;55457;52.002;5.464;2023-03-18T03:05:59;100589.44;;;21.45;39.85
55187;BME280;55457;52.002;5.464;2023-03-18T03:08:25;100587.53;;;21.45;39.85
55187;BME280;55457;52.002;5.464;2023-03-18T03:10:50;100591.09;;;21.46;39.98
55187;BME280;55457;52.002;5.464;2023-03-18T03:13:16;100585.09;;;21.44;39.97
55187;BME280;55457;52.002;5.464;2023-03-18T03:15:42;100601.09;;;21.45;39.96
55187;BME280;55457;52.002;5.464;2023-03-18T03:18:07;100593.81;;;21.46;39.70
55187;BME280;55457;52.002;5.464;2023-03-18T03:20:34;100598.38;;;21.45;39.88
55187;BME280;55457;52.002;5.464;2023-03-18T03:23:01;100601.69;;;21.47;40.04
55187;BME280;55457;52.002;5.464;2023-03-18T03:25:27;100603.31;;;21.48;39.80
55187;BME280;55457;52.002;5.464;2023-03-18T03:27:52;100599.22;;;21.46;39.96
55187;BME280;55457;52.002;5.464;2023-03-18T03:30:18;100607.09;;;21.47;39.81
55187;BME280;55457;52.002;5.464;2023-03-18T03:32:44;100606.28;;;21.47;39.86
55187;BME280;55457;52.002;5.464;2023-03-18T03:35:13;100610.91;;;21.46;40.11
55187;BME280;55457;52.002;5.464;2023-03-18T03:37:38;100610.91;;;21.46;39.87
55187;BME280;55457;52.002;5.464;2023-03-18T03:40:04;100610.91;;;21.46;39.98
55187;BME280;55457;52.002;5.464;2023-03-18T03:42:30;100619.84;;;21.47;40.01
55187;BME280;55457;52.002;5.464;2023-03-18T03:44:55;100623.38;;;21.47;40.06
55187;BME280;55457;52.002;5.464;2023-03-18T03:47:21;100610.63;;;21.48;39.74
55187;BME280;55457;52.002;5.464;2023-03-18T03:49:46;100617.94;;;21.47;39.85
55187;BME280;55457;52.002;5.464;2023-03-18T03:52:11;100621.75;;;21.46;39.91
55187;BME280;55457;52.002;5.464;2023-03-18T03:54:37;100613.59;;;21.46;39.88
55187;BME280;55457;52.002;5.464;2023-03-18T03:57:05;100621.75;;;21.46;39.80
55187;BME280;55457;52.002;5.464;2023-03-18T03:59:31;100619.03;;;21.46;39.99
55187;BME280;55457;52.002;5.464;2023-03-18T04:01:57;100625.50;;;21.45;39.98
55187;BME280;55457;52.002;5.464;2023-03-18T04:04:22;100624.44;;;21.46;39.98
55187;BME280;55457;52.002;5.464;2023-03-18T04:06:48;100621.75;;;21.46;39.92
55187;BME280;55457;52.002;5.464;2023-03-18T04:09:13;100620.91;;;21.46;40.15
55187;BME280;55457;52.002;5.464;2023-03-18T04:11:39;100617.94;;;21.47;40.01
55187;BME280;55457;52.002;5.464;2023-03-18T04:14:04;100622.56;;;21.47;39.80
55187;BME280;55457;52.002;5.464;2023-03-18T04:16:29;100620.06;;;21.45;40.19
55187;BME280;55457;52.002;5.464;2023-03-18T04:18:54;100620.91;;;21.46;39.81
55187;BME280;55457;52.002;5.464;2023-03-18T04:21:20;100624.44;;;21.46;39.90
55187;BME280;55457;52.002;5.464;2023-03-18T04:23:45;100620.06;;;21.45;39.95
55187;BME280;55457;52.002;5.464;2023-03-18T04:26:10;100623.88;;;21.44;39.86
55187;BME280;55457;52.002;5.464;2023-03-18T04:28:37;100630.91;;;21.45;39.98
55187;BME280;55457;52.002;5.464;2023-03-18T04:31:02;100628.22;;;21.45;39.83
55187;BME280;55457;52.002;5.464;2023-03-18T04:33:27;100619.25;;;21.45;39.83
55187;BME280;55457;52.002;5.464;2023-03-18T04:35:52;100635.53;;;21.45;39.96
55187;BME280;55457;52.002;5.464;2023-03-18T04:38:18;100625.50;;;21.45;39.96
55187;BME280;55457;52.002;5.464;2023-03-18T04:40:43;100633.63;;;21.45;40.07
55187;BME280;55457;52.002;5.464;2023-03-18T04:43:09;100630.91;;;21.45;40.06
55187;BME280;55457;52.002;5.464;2023-03-18T04:45:35;100632.59;;;21.46;39.77
55187;BME280;55457;52.002;5.464;2023-03-18T04:48:00;100632.59;;;21.46;39.88
55187;BME280;55457;52.002;5.464;2023-03-18T04:50:25;100631.75;;;21.46;39.84
55187;BME280;55457;52.002;5.464;2023-03-18T04:52:51;100628.78;;;21.47;39.93
55187;BME280;55457;52.002;5.464;2023-03-18T04:55:17;100634.22;;;21.47;39.98
55187;BME280;55457;52.002;5.464;2023-03-18T04:57:44;100635.84;;;21.48;39.98
55187;BME280;55457;52.002;5.464;2023-03-18T05:00:10;100644.78;;;21.49;39.93
55187;BME280;55457;52.002;5.464;2023-03-18T05:02:39;100636.66;;;21.49;39.99
55187;BME280;55457;52.002;5.464;2023-03-18T05:05:05;100635.84;;;21.48;39.96
55187;BME280;55457;52.002;5.464;2023-03-18T05:07:30;100640.19;;;21.49;39.84
55187;BME280;55457;52.002;5.464;2023-03-18T05:09:55;100641.81;;;21.50;39.96
55187;BME280;55457;52.002;5.464;2023-03-18T05:12:21;100650.22;;;21.49;40.07
55187;BME280;55457;52.002;5.464;2023-03-18T05:14:46;100648.31;;;21.49;40.01
55187;BME280;55457;52.002;5.464;2023-03-18T05:17:12;100653.75;;;21.49;40.06
55187;BME280;55457;52.002;5.464;2023-03-18T05:19:48;100659.97;;;21.50;40.00
55187;BME280;55457;52.002;5.464;2023-03-18T05:22:15;100660.78;;;21.50;40.13
55187;BME280;55457;52.002;5.464;2023-03-18T05:24:41;100668.94;;;21.50;39.85
55187;BME280;55457;52.002;5.464;2023-03-18T05:27:10;100672.72;;;21.49;39.93
55187;BME280;55457;52.002;5.464;2023-03-18T05:29:36;100667.31;;;21.49;40.00
55187;BME280;55457;52.002;5.464;2023-03-18T05:32:02;100663.50;;;21.50;39.96
55187;BME280;55457;52.002;5.464;2023-03-18T05:34:28;100666.22;;;21.50;40.14
55187;BME280;55457;52.002;5.464;2023-03-18T05:36:53;100676.25;;;21.50;40.00
55187;BME280;55457;52.002;5.464;2023-03-18T05:39:18;100674.34;;;21.50;39.86
55187;BME280;55457;52.002;5.464;2023-03-18T05:41:44;100679.78;;;21.50;40.02
55187;BME280;55457;52.002;5.464;2023-03-18T05:44:09;100673.53;;;21.50;39.99
55187;BME280;55457;52.002;5.464;2023-03-18T05:46:34;100670.81;;;21.50;40.17
55187;BME280;55457;52.002;5.464;2023-03-18T05:48:59;100677.06;;;21.50;40.18
55187;BME280;55457;52.002;5.464;2023-03-18T05:51:24;100670.81;;;21.50;40.02
55187;BME280;55457;52.002;5.464;2023-03-18T05:53:50;100681.44;;;21.51;40.05
55187;BME280;55457;52.002;5.464;2023-03-18T05:56:15;100682.50;;;21.50;40.16
55187;BME280;55457;52.002;5.464;2023-03-18T05:58:42;100686.28;;;21.49;40.11
55187;BME280;55457;52.002;5.464;2023-03-18T06:01:07;100685.19;;;21.50;40.06
55187;BME280;55457;52.002;5.464;2023-03-18T06:03:32;100691.69;;;21.49;40.05
55187;BME280;55457;52.002;5.464;2023-03-18T06:05:59;100697.13;;;21.49;40.12
55187;BME280;55457;52.002;5.464;2023-03-18T06:08:24;100694.19;;;21.51;39.88
55187;BME280;55457;52.002;5.464;2023-03-18T06:10:49;100689.00;;;21.49;39.90
55187;BME280;55457;52.002;5.464;2023-03-18T06:13:15;100684.38;;;21.50;40.09
55187;BME280;55457;52.002;5.464;2023-03-18T06:15:40;100684.38;;;21.50;40.06
55187;BME280;55457;52.002;5.464;2023-03-18T06:18:05;100693.34;;;21.50;40.02
55187;BME280;55457;52.002;5.464;2023-03-18T06:20:31;100696.31;;;21.49;39.92
55187;BME280;55457;52.002;5.464;2023-03-18T06:22:56;100697.13;;;21.49;39.90
55187;BME280;55457;52.002;5.464;2023-03-18T06:25:21;100704.19;;;21.50;40.12
55187;BME280;55457;52.002;5.464;2023-03-18T06:27:47;100714.22;;;21.50;39.85
55187;BME280;55457;52.002;5.464;2023-03-18T06:30:13;100720.44;;;21.50;40.18
55187;BME280;55457;52.002;5.464;2023-03-18T06:32:39;100723.16;;;21.50;39.96
55187;BME280;55457;52.002;5.464;2023-03-18T06:35:04;100725.88;;;21.50;40.11
55187;BME280;55457;52.002;5.464;2023-03-18T06:37:30;100727.75;;;21.50;40.07
55187;BME280;55457;52.002;5.464;2023-03-18T06:39:55;100722.13;;;21.51;40.23
55187;BME280;55457;52.002;5.464;2023-03-18T06:42:20;100713.16;;;21.51;40.17
55187;BME280;55457;52.002;5.464;2023-03-18T06:44:45;100705.03;;;21.51;40.17
55187;BME280;55457;52.002;5.464;2023-03-18T06:47:16;100720.44;;;21.50;40.04
55187;BME280;55457;52.002;5.464;2023-03-18T06:49:41;100730.25;;;21.51;40.04
55187;BME280;55457;52.002;5.464;2023-03-18T06:52:06;100735.66;;;21.51;40.15
55187;BME280;55457;52.002;5.464;2023-03-18T06:54:31;100730.47;;;21.50;40.09
55187;BME280;55457;52.002;5.464;2023-03-18T06:56:58;100735.66;;;21.51;40.30
55187;BME280;55457;52.002;5.464;2023-03-18T06:59:23;100740.00;;;21.52;40.58
55187;BME280;55457;52.002;5.464;2023-03-18T07:01:49;100742.47;;;21.54;40.52
55187;BME280;55457;52.002;5.464;2023-03-18T07:04:14;100747.63;;;21.55;40.58
55187;BME280;55457;52.002;5.464;2023-03-18T07:06:39;100750.34;;;21.55;40.64
55187;BME280;55457;52.002;5.464;2023-03-18T07:09:05;100752.00;;;21.56;40.74
55187;BME280;55457;52.002;5.464;2023-03-18T07:11:30;100746.56;;;21.56;40.69
55187;BME280;55457;52.002;5.464;2023-03-18T07:13:55;100748.22;;;21.57;40.96
55187;BME280;55457;52.002;5.464;2023-03-18T07:16:21;100749.84;;;21.58;40.80
55187;BME280;55457;52.002;5.464;2023-03-18T07:18:46;100756.09;;;21.59;41.04
55187;BME280;55457;52.002;5.464;2023-03-18T07:21:11;100757.72;;;21.60;41.27
55187;BME280;55457;52.002;5.464;2023-03-18T07:23:37;100758.53;;;21.60;40.94
55187;BME280;55457;52.002;5.464;2023-03-18T07:26:03;100766.66;;;21.60;41.03
55187;BME280;55457;52.002;5.464;2023-03-18T07:28:28;100766.44;;;21.62;41.08
55187;BME280;55457;52.002;5.464;2023-03-18T07:30:53;100771.59;;;21.63;41.32
55187;BME280;55457;52.002;5.464;2023-03-18T07:33:18;100765.34;;;21.63;41.34
55187;BME280;55457;52.002;5.464;2023-03-18T07:35:44;100778.09;;;21.62;41.05
55187;BME280;55457;52.002;5.464;2023-03-18T07:38:09;100773.50;;;21.63;41.28
55187;BME280;55457;52.002;5.464;2023-03-18T07:40:35;100773.50;;;21.63;41.12
55187;BME280;55457;52.002;5.464;2023-03-18T07:43:00;100769.69;;;21.64;41.25
55187;BME280;55457;52.002;5.464;2023-03-18T07:45:26;100776.75;;;21.65;41.27
55187;BME280;55457;52.002;5.464;2023-03-18T07:47:51;100783.00;;;21.66;41.29
55187;BME280;55457;52.002;5.464;2023-03-18T07:50:17;100784.66;;;21.67;41.14
55187;BME280;55457;52.002;5.464;2023-03-18T07:52:42;100775.44;;;21.68;41.25
55187;BME280;55457;52.002;5.464;2023-03-18T07:55:08;100780.88;;;21.68;41.51
55187;BME280;55457;52.002;5.464;2023-03-18T07:57:34;100784.66;;;21.67;41.45
55187;BME280;55457;52.002;5.464;2023-03-18T08:00:00;100791.72;;;21.68;41.12
55187;BME280;55457;52.002;5.464;2023-03-18T08:02:25;100798.78;;;21.69;41.16
55187;BME280;55457;52.002;5.464;2023-03-18T08:04:52;100788.75;;;21.69;41.39
55187;BME280;55457;52.002;5.464;2023-03-18T08:07:17;100795.00;;;21.70;41.41
55187;BME280;55457;52.002;5.464;2023-03-18T08:09:43;100795.81;;;21.70;41.32
55187;BME280;55457;52.002;5.464;2023-03-18T08:12:08;100793.91;;;21.71;41.42
55187;BME280;55457;52.002;5.464;2023-03-18T08:14:34;100797.44;;;21.71;41.48
55187;BME280;55457;52.002;5.464;2023-03-18T08:16:59;100792.88;;;21.72;41.58
55187;BME280;55457;52.002;5.464;2023-03-18T08:19:25;100800.72;;;21.73;41.61
55187;BME280;55457;52.002;5.464;2023-03-18T08:21:51;100790.69;;;21.74;41.30
55187;BME280;55457;52.002;5.464;2023-03-18T08:24:16;100785.84;;;21.76;41.52
55187;BME280;55457;52.002;5.464;2023-03-18T08:26:42;100788.53;;;21.76;41.76
55187;BME280;55457;52.002;5.464;2023-03-18T08:29:07;100781.81;;;21.78;41.58
55187;BME280;55457;52.002;5.464;2023-03-18T08:31:32;100784.25;;;21.80;41.74
55187;BME280;55457;52.002;5.464;2023-03-18T08:33:58;100781.03;;;21.83;41.52
55187;BME280;55457;52.002;5.464;2023-03-18T08:36:24;100780.28;;;21.87;41.97
55187;BME280;55457;52.002;5.464;2023-03-18T08:38:50;100777.63;;;21.93;41.86
55187;BME280;55457;52.002;5.464;2023-03-18T08:41:16;100773.31;;;21.97;41.85
55187;BME280;55457;52.002;5.464;2023-03-18T08:43:41;100770.91;;;22.00;41.68
55187;BME280;55457;52.002;5.464;2023-03-18T08:46:07;100773.94;;;22.04;41.58
55187;BME280;55457;52.002;5.464;2023-03-18T08:48:34;100774.22;;;22.07;41.39
55187;BME280;55457;52.002;5.464;2023-03-18T08:51:03;100780.81;;;22.11;41.32
55187;BME280;55457;52.002;5.464;2023-03-18T08:53:28;100783.59;;;22.17;41.40
55187;BME280;55457;52.002;5.464;2023-03-18T08:55:54;100783.31;;;22.18;41.36
55187;BME280;55457;52.002;5.464;2023-03-18T08:58:19;100783.38;;;22.23;41.29
55187;BME280;55457;52.002;5.464;2023-03-18T09:00:44;100789.94;;;22.27;41.63
55187;BME280;55457;52.002;5.464;2023-03-18T09:03:09;100788.56;;;22.25;41.36
55187;BME280;55457;52.002;5.464;2023-03-18T09:05:35;100786.34;;;22.22;41.51
55187;BME280;55457;52.002;5.464;2023-03-18T09:08:01;100797.22;;;22.22;41.44
55187;BME280;55457;52.002;5.464;2023-03-18T09:10:27;100790.16;;;22.21;41.46
55187;BME280;55457;52.002;5.464;2023-03-18T09:12:54;100798.03;;;22.22;41.64
55187;BME280;55457;52.002;5.464;2023-03-18T09:15:19;100800.72;;;22.22;41.61
55187;BME280;55457;52.002;5.464;2023-03-18T09:17:44;100804.03;;;22.24;41.51
55187;BME280;55457;52.002;5.464;2023-03-18T09:20:11;100803.22;;;22.29;41.61
55187;BME280;55457;52.002;5.464;2023-03-18T09:22:38;100808.44;;;22.30;41.44
55187;BME280;55457;52.002;5.464;2023-03-18T09:25:03;100808.66;;;22.29;41.57
55187;BME280;55457;52.002;5.464;2023-03-18T09:27:29;100817.66;;;22.29;41.51
55187;BME280;55457;52.002;5.464;2023-03-18T09:29:54;100807.66;;;22.35;41.51
55187;BME280;55457;52.002;5.464;2023-03-18T09:32:20;100812.56;;;22.38;41.37
55187;BME280;55457;52.002;5.464;2023-03-18T09:34:46;100822.09;;;22.40;41.42
55187;BME280;55457;52.002;5.464;2023-03-18T09:37:11;100819.13;;;22.42;41.32
55187;BME280;55457;52.002;5.464;2023-03-18T09:39:38;100819.44;;;22.46;41.69
55187;BME280;55457;52.002;5.464;2023-03-18T09:44:41;100833.59;;;22.53;41.57
55187;BME280;55457;52.002;5.464;2023-03-18T09:52:23;100833.69;;;22.63;41.35
55187;BME280;55457;52.002;5.464;2023-03-18T09:57:22;100831.84;;;22.69;41.44
55187;BME280;55457;52.002;5.464;2023-03-18T09:59:52;100829.13;;;22.69;41.81
55187;BME280;55457;52.002;5.464;2023-03-18T10:02:25;100831.84;;;22.69;41.97
55187;BME280;55457;52.002;5.464;2023-03-18T10:04:56;100825.88;;;22.66;41.59
55187;BME280;55457;52.002;5.464;2023-03-18T10:07:41;100837.28;;;22.69;41.81
55187;BME280;55457;52.002;5.464;2023-03-18T10:12:55;100831.06;;;22.73;41.70
55187;BME280;55457;52.002;5.464;2023-03-18T10:15:31;100840.84;;;22.74;41.50
55187;BME280;55457;52.002;5.464;2023-03-18T10:18:03;100836.81;;;22.77;41.14
55187;BME280;55457;52.002;5.464;2023-03-18T10:20:36;100833.56;;;22.80;41.42
55187;BME280;55457;52.002;5.464;2023-03-18T10:25:53;100826.25;;;22.85;41.31
55187;BME280;55457;52.002;5.464;2023-03-18T10:36:29;100825.03;;;22.98;41.01
55187;BME280;55457;52.002;5.464;2023-03-18T10:38:56;100826.41;;;23.01;41.06
55187;BME280;55457;52.002;5.464;2023-03-18T10:41:32;100825.34;;;23.07;40.92
55187;BME280;55457;52.002;5.464;2023-03-18T10:44:00;100827.56;;;23.10;41.11
55187;BME280;55457;52.002;5.464;2023-03-18T10:46:26;100831.63;;;23.12;41.23
55187;BME280;55457;52.002;5.464;2023-03-18T10:51:21;100830.66;;;23.24;41.01
55187;BME280;55457;52.002;5.464;2023-03-18T10:56:33;100832.81;;;23.27;40.67
55187;BME280;55457;52.002;5.464;2023-03-18T10:58:59;100839.34;;;23.26;40.58
55187;BME280;55457;52.002;5.464;2023-03-18T11:01:25;100831.72;;;23.23;40.76
55187;BME280;55457;52.002;5.464;2023-03-18T11:03:53;100819.97;;;23.17;40.44
55187;BME280;55457;52.002;5.464;2023-03-18T11:07:14;100825.69;;;23.15;40.82
55187;BME280;55457;52.002;5.464;2023-03-18T11:09:15;100826.00;;;23.19;40.71
55187;BME280;55457;52.002;5.464;2023-03-18T11:11:44;100821.09;;;23.21;40.80
55187;BME280;55457;52.002;5.464;2023-03-18T11:14:28;100822.19;;;23.20;40.63
55187;BME280;55457;52.002;5.464;2023-03-18T11:17:01;100820.81;;;23.17;40.58
55187;BME280;55457;52.002;5.464;2023-03-18T11:24:35;100820.78;;;23.12;40.83
55187;BME280;55457;52.002;5.464;2023-03-18T11:27:03;100815.28;;;23.07;40.73
55187;BME280;55457;52.002;5.464;2023-03-18T11:29:31;100819.66;;;23.03;40.84
55187;BME280;55457;52.002;5.464;2023-03-18T11:31:58;100831.03;;;23.00;40.81
55187;BME280;55457;52.002;5.464;2023-03-18T11:34:27;100819.03;;;22.96;40.58
55187;BME280;55457;52.002;5.464;2023-03-18T11:36:53;100822.53;;;22.91;41.01
55187;BME280;55457;52.002;5.464;2023-03-18T11:39:20;100820.59;;;22.87;40.71
55187;BME280;55457;52.002;5.464;2023-03-18T11:41:46;100820.00;;;22.85;41.00
55187;BME280;55457;52.002;5.464;2023-03-18T11:44:15;100821.59;;;22.81;41.13
55187;BME280;55457;52.002;5.464;2023-03-18T11:46:45;100827.56;;;22.78;41.01
55187;BME280;55457;52.002;5.464;2023-03-18T11:49:12;100824.28;;;22.76;41.20
55187;BME280;55457;52.002;5.464;2023-03-18T11:56:41;100821.53;;;22.71;40.98
55187;BME280;55457;52.002;5.464;2023-03-18T12:06:48;100819.34;;;22.67;41.27
55187;BME280;55457;52.002;5.464;2023-03-18T12:09:27;100815.81;;;22.67;40.98
55187;BME280;55457;52.002;5.464;2023-03-18T12:19:26;100821.72;;;22.59;41.15
55187;BME280;55457;52.002;5.464;2023-03-18T12:24:59;100817.03;;;22.54;41.23
55187;BME280;55457;52.002;5.464;2023-03-18T12:27:36;100820.84;;;22.53;41.39
55187;BME280;55457;52.002;5.464;2023-03-18T12:30:22;100823.00;;;22.51;41.22
55187;BME280;55457;52.002;5.464;2023-03-18T12:40:16;100827.59;;;22.46;41.25
55187;BME280;55457;52.002;5.464;2023-03-18T12:43:11;100827.81;;;22.44;41.13
55187;BME280;55457;52.002;5.464;2023-03-18T12:45:42;100826.19;;;22.43;41.16
55187;BME280;55457;52.002;5.464;2023-03-18T12:48:09;100821.03;;;22.42;41.25
55187;BME280;55457;52.002;5.464;2023-03-18T12:50:40;100823.19;;;22.39;41.37
55187;BME280;55457;52.002;5.464;2023-03-18T12:53:13;100815.53;;;22.36;41.35
55187;BME280;55457;52.002;5.464;2023-03-18T12:55:41;100821.25;;;22.35;41.38
55187;BME280;55457;52.002;5.464;2023-03-18T13:00:41;100822.56;;;22.32;41.46
55187;BME280;55457;52.002;5.464;2023-03-18T13:05:53;100818.72;;;22.28;41.41
55187;BME280;55457;52.002;5.464;2023-03-18T13:10:48;100818.41;;;22.25;41.53
55187;BME280;55457;52.002;5.464;2023-03-18T13:13:16;100814.03;;;22.24;41.37
55187;BME280;55457;52.002;5.464;2023-03-18T13:15:49;100819.75;;;22.22;41.38
55187;BME280;55457;52.002;5.464;2023-03-18T13:18:23;100809.16;;;22.21;41.31
55187;BME280;55457;52.002;5.464;2023-03-18T13:20:49;100811.84;;;22.21;41.58
55187;BME280;55457;52.002;5.464;2023-03-18T13:28:20;100815.94;;;22.23;41.40
55187;BME280;55457;52.002;5.464;2023-03-18T13:30:59;100823.84;;;22.25;41.39
55187;BME280;55457;52.002;5.464;2023-03-18T13:43:45;100808.06;;;22.22;41.46
55187;BME280;55457;52.002;5.464;2023-03-18T13:46:17;100811.84;;;22.21;41.48
55187;BME280;55457;52.002;5.464;2023-03-18T13:48:44;100806.44;;;22.21;41.45
55187;BME280;55457;52.002;5.464;2023-03-18T13:51:17;100811.84;;;22.21;41.52
55187;BME280;55457;52.002;5.464;2023-03-18T13:53:43;100806.44;;;22.21;41.39
55187;BME280;55457;52.002;5.464;2023-03-18T13:56:26;100808.06;;;22.22;41.58
55187;BME280;55457;52.002;5.464;2023-03-18T13:58:52;100798.28;;;22.21;41.51
55187;BME280;55457;52.002;5.464;2023-03-18T14:01:31;100801.00;;;22.21;41.57
55187;BME280;55457;52.002;5.464;2023-03-18T14:06:45;100806.44;;;22.21;41.61
55187;BME280;55457;52.002;5.464;2023-03-18T14:09:21;100799.09;;;22.21;41.54
55187;BME280;55457;52.002;5.464;2023-03-18T14:11:47;100795.56;;;22.21;41.76
55187;BME280;55457;52.002;5.464;2023-03-18T14:16:57;100790.16;;;22.21;41.54
55187;BME280;55457;52.002;5.464;2023-03-18T14:19:24;100797.22;;;22.22;41.51
55187;BME280;55457;52.002;5.464;2023-03-18T14:22:16;100786.34;;;22.22;41.48
55187;BME280;55457;52.002;5.464;2023-03-18T14:24:38;100789.06;;;22.22;41.86
55187;BME280;55457;52.002;5.464;2023-03-18T14:29:41;100789.63;;;22.24;42.14
55187;BME280;55457;52.002;5.464;2023-03-18T14:34:57;100786.91;;;22.24;42.10
55187;BME280;55457;52.002;5.464;2023-03-18T14:37:24;100783.94;;;22.25;42.04
55187;BME280;55457;52.002;5.464;2023-03-18T14:39:50;100779.69;;;22.34;41.89
55187;BME280;55457;52.002;5.464;2023-03-18T14:44:52;100763.53;;;22.55;42.12
55187;BME280;55457;52.002;5.464;2023-03-18T14:47:19;100762.81;;;22.64;41.80
55187;BME280;55457;52.002;5.464;2023-03-18T14:49:46;100765.88;;;22.73;41.57
55187;BME280;55457;52.002;5.464;2023-03-18T14:52:22;100761.84;;;22.81;41.77
55187;BME280;55457;52.002;5.464;2023-03-18T14:54:49;100760.56;;;22.88;41.62
55187;BME280;55457;52.002;5.464;2023-03-18T14:57:16;100758.44;;;22.96;41.25
55187;BME280;55457;52.002;5.464;2023-03-18T14:59:41;100747.88;;;22.99;41.25
55187;BME280;55457;52.002;5.464;2023-03-18T15:02:10;100742.72;;;23.03;41.42
55187;BME280;55457;52.002;5.464;2023-03-18T15:04:39;100743.56;;;23.08;41.38
55187;BME280;55457;52.002;5.464;2023-03-18T15:07:14;100752.56;;;23.14;41.17
55187;BME280;55457;52.002;5.464;2023-03-18T15:09:39;100750.13;;;23.17;41.04
55187;BME280;55457;52.002;5.464;2023-03-18T15:12:23;100750.13;;;23.23;40.85
55187;BME280;55457;52.002;5.464;2023-03-18T15:14:49;100747.44;;;23.28;40.81
55187;BME280;55457;52.002;5.464;2023-03-18T15:17:15;100749.66;;;23.31;40.75
55187;BME280;55457;52.002;5.464;2023-03-18T15:19:41;100747.47;;;23.33;40.80
55187;BME280;55457;52.002;5.464;2023-03-18T15:22:06;100745.31;;;23.35;41.10
55187;BME280;55457;52.002;5.464;2023-03-18T15:24:32;100740.44;;;23.37;40.88
55187;BME280;55457;52.002;5.464;2023-03-18T15:26:59;100742.63;;;23.40;40.52
55187;BME280;55457;52.002;5.464;2023-03-18T15:29:28;100742.63;;;23.40;40.73
55187;BME280;55457;52.002;5.464;2023-03-18T15:34:53;100740.97;;;23.34;40.59
55187;BME280;55457;52.002;5.464;2023-03-18T15:37:24;100750.22;;;23.38;40.82
55187;BME280;55457;52.002;5.464;2023-03-18T15:39:50;100740.16;;;23.38;40.75
55187;BME280;55457;52.002;5.464;2023-03-18T15:42:19;100729.03;;;23.40;40.56
55187;BME280;55457;52.002;5.464;2023-03-18T15:44:59;100733.38;;;23.41;40.68
55187;BME280;55457;52.002;5.464;2023-03-18T15:47:29;100724.94;;;23.42;40.49
55187;BME280;55457;52.002;5.464;2023-03-18T15:49:59;100731.19;;;23.43;40.65
55187;BME280;55457;52.002;5.464;2023-03-18T15:52:26;100730.38;;;23.42;40.53
55187;BME280;55457;52.002;5.464;2023-03-18T15:54:55;100734.19;;;23.41;40.32